sensor_id;sensor_type;location;lat;lon;timestamp;P1;durP1;ratioP1;P2;durP2;ratioP2
7211;SDS011;3647;48.792;9.802;2023-11-22T05:17:44;4.80;;;4.17;;
7211;SDS011;3647;48.792;9.802;2023-11-22T05:20:11;5.73;;;4.77;;
7211;SDS011;3647;48.792;9.802;2023-11-22T05:22:38;7.07;;;4.60;;
7211;SDS011;3647;48.792;9.802;2023-11-22T05:25:05;7.80;;;5.57;;
7211;SDS011;3647;48.792;9.802;2023-11-22T05:27:33;5.40;;;4.83;;
7211;SDS011;3647;48.792;9.802;2023-11-22T05:30:01;5.87;;;5.27;;
7211;SDS011;3647;48.792;9.802;2023-11-22T05:32:29;7.60;;;5.37;;
7211;SDS011;3647;48.792;9.802;2023-11-22T05:34:58;8.60;;;5.77;;
7211;SDS011;3647;48.792;9.802;2023-11-22T05:37:25;5.87;;;4.70;;
7211;SDS011;3647;48.792;9.802;2023-11-22T05:39:54;6.10;;;5.23;;
7211;SDS011;3647;48.792;9.802;2023-11-22T05:42:21;6.27;;;5.37;;
7211;SDS011;3647;48.792;9.802;2023-11-22T05:44:50;8.47;;;6.03;;
7211;SDS011;3647;48.792;9.802;2023-11-22T05:47:17;7.97;;;5.50;;
7211;SDS011;3647;48.792;9.802;2023-11-22T05:49:44;8.47;;;5.50;;
7211;SDS011;3647;48.792;9.802;2023-11-22T07:53:56;4.30;;;3.90;;
7211;SDS011;3647;48.792;9.802;2023-11-22T07:56:23;4.00;;;3.50;;
7211;SDS011;3647;48.792;9.802;2023-11-22T07:58:50;4.57;;;4.17;;
7211;SDS011;3647;48.792;9.802;2023-11-22T08:01:18;4.87;;;4.33;;
7211;SDS011;3647;48.792;9.802;2023-11-22T08:03:45;5.57;;;4.67;;
7211;SDS011;3647;48.792;9.802;2023-11-22T08:06:12;6.07;;;4.60;;
7211;SDS011;3647;48.792;9.802;2023-11-22T08:08:40;5.80;;;4.77;;
7211;SDS011;3647;48.792;9.802;2023-11-22T08:11:08;5.53;;;4.40;;
7211;SDS011;3647;48.792;9.802;2023-11-22T08:13:40;5.73;;;4.70;;
7211;SDS011;3647;48.792;9.802;2023-11-22T08:16:08;6.97;;;4.57;;
7211;SDS011;3647;48.792;9.802;2023-11-22T08:18:35;7.90;;;4.70;;
7211;SDS011;3647;48.792;9.802;2023-11-22T08:21:02;7.53;;;4.63;;
7211;SDS011;3647;48.792;9.802;2023-11-22T08:23:30;5.23;;;4.63;;
7211;SDS011;3647;48.792;9.802;2023-11-22T08:25:58;6.10;;;4.73;;
7211;SDS011;3647;48.792;9.802;2023-11-22T08:28:26;6.27;;;4.77;;
7211;SDS011;3647;48.792;9.802;2023-11-22T08:30:54;7.07;;;5.30;;
7211;SDS011;3647;48.792;9.802;2023-11-22T08:33:21;4.97;;;4.57;;
7211;SDS011;3647;48.792;9.802;2023-11-22T08:35:48;5.60;;;5.10;;
7211;SDS011;3647;48.792;9.802;2023-11-22T08:38:23;8.63;;;5.20;;
7211;SDS011;3647;48.792;9.802;2023-11-22T08:40:50;5.87;;;4.87;;
7211;SDS011;3647;48.792;9.802;2023-11-22T08:43:18;7.70;;;5.30;;
7211;SDS011;3647;48.792;9.802;2023-11-22T08:45:49;6.27;;;5.27;;
7211;SDS011;3647;48.792;9.802;2023-11-22T08:48:16;7.27;;;4.50;;
7211;SDS011;3647;48.792;9.802;2023-11-22T08:50:43;6.10;;;5.60;;
7211;SDS011;3647;48.792;9.802;2023-11-22T08:53:13;6.77;;;5.07;;
7211;SDS011;3647;48.792;9.802;2023-11-22T08:55:40;7.13;;;5.47;;
7211;SDS011;3647;48.792;9.802;2023-11-22T08:58:08;6.13;;;5.43;;
7211;SDS011;3647;48.792;9.802;2023-11-22T09:00:36;6.80;;;5.60;;
7211;SDS011;3647;48.792;9.802;2023-11-22T09:03:05;7.17;;;5.73;;
7211;SDS011;3647;48.792;9.802;2023-11-22T09:05:32;6.47;;;5.50;;
7211;SDS011;3647;48.792;9.802;2023-11-22T09:07:59;7.87;;;5.13;;
7211;SDS011;3647;48.792;9.802;2023-11-22T09:10:26;7.67;;;5.87;;
7211;SDS011;3647;48.792;9.802;2023-11-22T09:12:54;7.07;;;5.20;;
7211;SDS011;3647;48.792;9.802;2023-11-22T09:15:24;6.47;;;5.27;;
7211;SDS011;3647;48.792;9.802;2023-11-22T09:17:54;7.37;;;5.77;;
7211;SDS011;3647;48.792;9.802;2023-11-22T09:20:23;5.83;;;5.20;;
7211;SDS011;3647;48.792;9.802;2023-11-22T09:22:51;8.00;;;5.93;;
7211;SDS011;3647;48.792;9.802;2023-11-22T09:25:20;5.37;;;4.83;;
7211;SDS011;3647;48.792;9.802;2023-11-22T09:27:48;7.60;;;5.13;;
7211;SDS011;3647;48.792;9.802;2023-11-22T09:30:21;7.67;;;5.27;;
7211;SDS011;3647;48.792;9.802;2023-11-22T09:33:00;6.30;;;4.97;;
7211;SDS011;3647;48.792;9.802;2023-11-22T09:35:29;10.10;;;5.57;;
7211;SDS011;3647;48.792;9.802;2023-11-22T09:37:57;7.27;;;5.47;;
7211;SDS011;3647;48.792;9.802;2023-11-22T09:40:25;9.03;;;5.70;;
7211;SDS011;3647;48.792;9.802;2023-11-22T09:42:54;5.53;;;4.97;;
7211;SDS011;3647;48.792;9.802;2023-11-22T09:45:23;7.70;;;5.17;;
7211;SDS011;3647;48.792;9.802;2023-11-22T09:47:52;7.93;;;5.60;;
7211;SDS011;3647;48.792;9.802;2023-11-22T09:50:20;6.47;;;5.30;;
7211;SDS011;3647;48.792;9.802;2023-11-22T09:52:57;7.63;;;5.40;;
7211;SDS011;3647;48.792;9.802;2023-11-22T09:55:28;6.87;;;5.13;;
7211;SDS011;3647;48.792;9.802;2023-11-22T09:57:58;6.07;;;5.00;;
7211;SDS011;3647;48.792;9.802;2023-11-22T10:00:28;6.23;;;4.63;;
7211;SDS011;3647;48.792;9.802;2023-11-22T10:02:55;6.27;;;5.33;;
7211;SDS011;3647;48.792;9.802;2023-11-22T10:05:23;5.83;;;5.07;;
7211;SDS011;3647;48.792;9.802;2023-11-22T10:07:54;7.40;;;5.80;;
7211;SDS011;3647;48.792;9.802;2023-11-22T10:10:26;7.70;;;5.77;;
7211;SDS011;3647;48.792;9.802;2023-11-22T10:13:05;6.43;;;4.87;;
7211;SDS011;3647;48.792;9.802;2023-11-22T10:15:36;6.57;;;5.23;;
7211;SDS011;3647;48.792;9.802;2023-11-22T10:18:07;6.17;;;4.53;;
7211;SDS011;3647;48.792;9.802;2023-11-22T10:20:36;5.37;;;4.87;;
7211;SDS011;3647;48.792;9.802;2023-11-22T10:23:09;5.20;;;4.70;;
7211;SDS011;3647;48.792;9.802;2023-11-22T10:25:37;7.60;;;4.97;;
7211;SDS011;3647;48.792;9.802;2023-11-22T10:28:10;5.73;;;5.17;;
7211;SDS011;3647;48.792;9.802;2023-11-22T10:30:37;6.73;;;5.10;;
7211;SDS011;3647;48.792;9.802;2023-11-22T10:33:09;8.53;;;6.27;;
7211;SDS011;3647;48.792;9.802;2023-11-22T10:35:41;5.43;;;4.93;;
7211;SDS011;3647;48.792;9.802;2023-11-22T10:38:11;7.07;;;5.33;;
7211;SDS011;3647;48.792;9.802;2023-11-22T10:40:40;5.73;;;4.87;;
7211;SDS011;3647;48.792;9.802;2023-11-22T10:43:09;5.77;;;4.60;;
7211;SDS011;3647;48.792;9.802;2023-11-22T10:45:40;6.73;;;5.27;;
7211;SDS011;3647;48.792;9.802;2023-11-22T10:48:11;7.57;;;5.87;;
7211;SDS011;3647;48.792;9.802;2023-11-22T10:50:41;6.67;;;5.37;;
7211;SDS011;3647;48.792;9.802;2023-11-22T10:53:11;5.47;;;4.97;;
7211;SDS011;3647;48.792;9.802;2023-11-22T10:55:42;6.93;;;5.43;;
7211;SDS011;3647;48.792;9.802;2023-11-22T10:58:11;5.77;;;5.23;;
7211;SDS011;3647;48.792;9.802;2023-11-22T11:00:42;6.00;;;5.40;;
7211;SDS011;3647;48.792;9.802;2023-11-22T11:03:11;6.43;;;5.60;;
7211;SDS011;3647;48.792;9.802;2023-11-22T11:05:41;6.40;;;4.93;;
7211;SDS011;3647;48.792;9.802;2023-11-22T11:08:13;6.77;;;4.93;;
7211;SDS011;3647;48.792;9.802;2023-11-22T11:10:45;9.70;;;5.83;;
7211;SDS011;3647;48.792;9.802;2023-11-22T11:13:14;6.30;;;5.27;;
7211;SDS011;3647;48.792;9.802;2023-11-22T11:15:43;6.03;;;5.10;;
7211;SDS011;3647;48.792;9.802;2023-11-22T11:18:15;6.00;;;5.30;;
7211;SDS011;3647;48.792;9.802;2023-11-22T11:20:49;6.97;;;5.57;;
7211;SDS011;3647;48.792;9.802;2023-11-22T11:23:21;6.30;;;5.67;;
7211;SDS011;3647;48.792;9.802;2023-11-22T11:25:50;7.17;;;5.50;;
7211;SDS011;3647;48.792;9.802;2023-11-22T11:28:17;6.60;;;5.07;;
7211;SDS011;3647;48.792;9.802;2023-11-22T11:30:47;8.67;;;6.07;;
7211;SDS011;3647;48.792;9.802;2023-11-22T11:33:15;6.37;;;5.50;;
7211;SDS011;3647;48.792;9.802;2023-11-22T11:35:47;7.47;;;5.30;;
7211;SDS011;3647;48.792;9.802;2023-11-22T11:38:31;6.00;;;4.80;;
7211;SDS011;3647;48.792;9.802;2023-11-22T11:41:06;8.07;;;5.13;;
7211;SDS011;3647;48.792;9.802;2023-11-22T11:43:42;7.20;;;4.97;;
7211;SDS011;3647;48.792;9.802;2023-11-22T11:46:11;9.17;;;5.27;;
7211;SDS011;3647;48.792;9.802;2023-11-22T11:48:41;5.87;;;4.50;;
7211;SDS011;3647;48.792;9.802;2023-11-22T11:51:16;6.23;;;4.63;;
7211;SDS011;3647;48.792;9.802;2023-11-22T11:53:49;6.50;;;4.83;;
7211;SDS011;3647;48.792;9.802;2023-11-22T11:56:21;6.00;;;5.23;;
7211;SDS011;3647;48.792;9.802;2023-11-22T11:58:51;5.27;;;4.53;;
7211;SDS011;3647;48.792;9.802;2023-11-22T12:01:19;5.53;;;4.17;;
7211;SDS011;3647;48.792;9.802;2023-11-22T12:03:48;5.43;;;4.93;;
7211;SDS011;3647;48.792;9.802;2023-11-22T12:06:18;5.03;;;4.37;;
7211;SDS011;3647;48.792;9.802;2023-11-22T12:08:46;5.47;;;4.67;;
7211;SDS011;3647;48.792;9.802;2023-11-22T12:11:16;5.93;;;5.13;;
7211;SDS011;3647;48.792;9.802;2023-11-22T12:13:43;6.40;;;5.13;;
7211;SDS011;3647;48.792;9.802;2023-11-22T12:16:14;5.57;;;4.90;;
7211;SDS011;3647;48.792;9.802;2023-11-22T12:18:46;6.20;;;4.97;;
7211;SDS011;3647;48.792;9.802;2023-11-22T12:21:14;6.93;;;5.33;;
7211;SDS011;3647;48.792;9.802;2023-11-22T12:23:43;5.50;;;4.90;;
7211;SDS011;3647;48.792;9.802;2023-11-22T12:26:12;6.87;;;5.63;;
7211;SDS011;3647;48.792;9.802;2023-11-22T12:28:45;6.37;;;5.23;;
7211;SDS011;3647;48.792;9.802;2023-11-22T12:31:13;7.03;;;4.67;;
7211;SDS011;3647;48.792;9.802;2023-11-22T12:33:43;7.43;;;5.50;;
7211;SDS011;3647;48.792;9.802;2023-11-22T12:36:13;5.03;;;4.53;;
7211;SDS011;3647;48.792;9.802;2023-11-22T12:38:42;7.77;;;5.30;;
7211;SDS011;3647;48.792;9.802;2023-11-22T12:41:09;7.27;;;5.57;;
7211;SDS011;3647;48.792;9.802;2023-11-22T12:43:37;6.40;;;4.97;;
7211;SDS011;3647;48.792;9.802;2023-11-22T12:46:07;9.20;;;5.10;;
7211;SDS011;3647;48.792;9.802;2023-11-22T12:48:40;7.50;;;5.10;;
7211;SDS011;3647;48.792;9.802;2023-11-22T12:51:14;5.37;;;4.73;;
7211;SDS011;3647;48.792;9.802;2023-11-22T12:53:41;6.37;;;4.90;;
7211;SDS011;3647;48.792;9.802;2023-11-22T12:56:09;4.93;;;4.47;;
7211;SDS011;3647;48.792;9.802;2023-11-22T12:58:36;5.97;;;4.90;;
7211;SDS011;3647;48.792;9.802;2023-11-22T13:01:04;6.97;;;4.93;;
7211;SDS011;3647;48.792;9.802;2023-11-22T13:03:33;6.50;;;5.00;;
7211;SDS011;3647;48.792;9.802;2023-11-22T13:06:00;6.43;;;5.20;;
7211;SDS011;3647;48.792;9.802;2023-11-22T13:08:29;5.90;;;4.60;;
7211;SDS011;3647;48.792;9.802;2023-11-22T13:11:05;6.47;;;5.20;;
7211;SDS011;3647;48.792;9.802;2023-11-22T13:13:32;8.17;;;5.67;;
7211;SDS011;3647;48.792;9.802;2023-11-22T13:16:00;6.47;;;5.73;;
7211;SDS011;3647;48.792;9.802;2023-11-22T13:18:30;7.10;;;6.40;;
7211;SDS011;3647;48.792;9.802;2023-11-22T13:20:59;6.87;;;5.27;;
7211;SDS011;3647;48.792;9.802;2023-11-22T13:23:26;8.07;;;5.33;;
7211;SDS011;3647;48.792;9.802;2023-11-22T13:25:53;7.33;;;5.77;;
7211;SDS011;3647;48.792;9.802;2023-11-22T13:28:21;8.93;;;6.67;;
7211;SDS011;3647;48.792;9.802;2023-11-22T13:30:50;9.57;;;6.27;;
7211;SDS011;3647;48.792;9.802;2023-11-22T13:33:17;9.50;;;6.73;;
7211;SDS011;3647;48.792;9.802;2023-11-22T13:35:45;10.07;;;6.13;;
7211;SDS011;3647;48.792;9.802;2023-11-22T13:38:14;7.13;;;5.87;;
7211;SDS011;3647;48.792;9.802;2023-11-22T13:40:41;8.43;;;5.97;;
7211;SDS011;3647;48.792;9.802;2023-11-22T13:43:11;7.60;;;5.60;;
7211;SDS011;3647;48.792;9.802;2023-11-22T13:45:39;7.03;;;5.50;;
7211;SDS011;3647;48.792;9.802;2023-11-22T13:48:12;7.00;;;6.20;;
7211;SDS011;3647;48.792;9.802;2023-11-22T13:50:42;6.57;;;5.77;;
7211;SDS011;3647;48.792;9.802;2023-11-22T13:53:09;7.93;;;6.30;;
7211;SDS011;3647;48.792;9.802;2023-11-22T13:55:40;6.47;;;5.10;;
7211;SDS011;3647;48.792;9.802;2023-11-22T13:58:35;9.53;;;5.50;;
7211;SDS011;3647;48.792;9.802;2023-11-22T14:01:03;6.93;;;5.50;;
7211;SDS011;3647;48.792;9.802;2023-11-22T14:03:38;9.73;;;6.13;;
7211;SDS011;3647;48.792;9.802;2023-11-22T14:06:06;6.20;;;5.47;;
7211;SDS011;3647;48.792;9.802;2023-11-22T14:08:34;5.77;;;5.17;;
7211;SDS011;3647;48.792;9.802;2023-11-22T14:11:03;6.67;;;5.50;;
7211;SDS011;3647;48.792;9.802;2023-11-22T14:13:33;7.37;;;5.87;;
7211;SDS011;3647;48.792;9.802;2023-11-22T14:16:20;8.77;;;5.67;;
7211;SDS011;3647;48.792;9.802;2023-11-22T14:18:47;7.47;;;5.87;;
7211;SDS011;3647;48.792;9.802;2023-11-22T14:21:15;8.70;;;6.57;;
7211;SDS011;3647;48.792;9.802;2023-11-22T14:23:42;7.90;;;5.87;;
7211;SDS011;3647;48.792;9.802;2023-11-22T14:26:11;8.57;;;6.57;;
7211;SDS011;3647;48.792;9.802;2023-11-22T14:28:38;7.43;;;5.90;;
7211;SDS011;3647;48.792;9.802;2023-11-22T14:31:06;9.00;;;6.47;;
7211;SDS011;3647;48.792;9.802;2023-11-22T14:33:34;9.70;;;6.07;;
7211;SDS011;3647;48.792;9.802;2023-11-22T14:36:01;8.83;;;5.80;;
7211;SDS011;3647;48.792;9.802;2023-11-22T14:38:29;6.77;;;5.23;;
7211;SDS011;3647;48.792;9.802;2023-11-22T14:40:57;7.43;;;5.90;;
7211;SDS011;3647;48.792;9.802;2023-11-22T14:43:25;6.97;;;5.37;;
7211;SDS011;3647;48.792;9.802;2023-11-22T14:45:52;8.33;;;6.07;;
7211;SDS011;3647;48.792;9.802;2023-11-22T14:48:23;9.50;;;5.27;;
7211;SDS011;3647;48.792;9.802;2023-11-22T14:50:52;9.20;;;5.97;;
7211;SDS011;3647;48.792;9.802;2023-11-22T14:53:20;8.60;;;6.10;;
7211;SDS011;3647;48.792;9.802;2023-11-22T14:55:49;6.03;;;5.10;;
7211;SDS011;3647;48.792;9.802;2023-11-22T14:58:16;7.23;;;6.20;;
7211;SDS011;3647;48.792;9.802;2023-11-22T15:00:45;6.63;;;5.57;;
7211;SDS011;3647;48.792;9.802;2023-11-22T15:03:13;7.90;;;5.80;;
7211;SDS011;3647;48.792;9.802;2023-11-22T15:05:41;7.57;;;5.80;;
7211;SDS011;3647;48.792;9.802;2023-11-22T15:08:08;6.43;;;5.73;;
7211;SDS011;3647;48.792;9.802;2023-11-22T15:10:35;6.30;;;5.63;;
7211;SDS011;3647;48.792;9.802;2023-11-22T15:13:02;8.10;;;6.07;;
7211;SDS011;3647;48.792;9.802;2023-11-22T15:15:29;7.10;;;5.97;;
7211;SDS011;3647;48.792;9.802;2023-11-22T15:17:58;9.20;;;5.80;;
7211;SDS011;3647;48.792;9.802;2023-11-22T15:20:24;15.97;;;6.13;;
7211;SDS011;3647;48.792;9.802;2023-11-22T15:22:52;9.33;;;6.07;;
7211;SDS011;3647;48.792;9.802;2023-11-22T15:25:20;8.77;;;6.23;;
7211;SDS011;3647;48.792;9.802;2023-11-22T15:27:47;6.83;;;5.83;;
7211;SDS011;3647;48.792;9.802;2023-11-22T15:30:14;10.07;;;6.50;;
7211;SDS011;3647;48.792;9.802;2023-11-22T15:32:44;9.33;;;6.80;;
7211;SDS011;3647;48.792;9.802;2023-11-22T15:35:12;7.30;;;6.53;;
7211;SDS011;3647;48.792;9.802;2023-11-22T15:37:39;7.50;;;5.67;;
7211;SDS011;3647;48.792;9.802;2023-11-22T15:40:07;7.27;;;5.90;;
7211;SDS011;3647;48.792;9.802;2023-11-22T15:42:35;9.37;;;6.87;;
7211;SDS011;3647;48.792;9.802;2023-11-22T15:45:03;8.63;;;6.50;;
7211;SDS011;3647;48.792;9.802;2023-11-22T15:47:32;8.40;;;5.83;;
7211;SDS011;3647;48.792;9.802;2023-11-22T15:50:01;8.13;;;5.63;;
7211;SDS011;3647;48.792;9.802;2023-11-22T15:52:32;8.47;;;6.47;;
7211;SDS011;3647;48.792;9.802;2023-11-22T15:54:59;8.97;;;6.53;;
7211;SDS011;3647;48.792;9.802;2023-11-22T15:57:26;6.83;;;6.13;;
7211;SDS011;3647;48.792;9.802;2023-11-22T15:59:53;8.63;;;6.57;;
7211;SDS011;3647;48.792;9.802;2023-11-22T16:02:20;9.53;;;7.90;;
7211;SDS011;3647;48.792;9.802;2023-11-22T16:04:47;7.77;;;6.67;;
7211;SDS011;3647;48.792;9.802;2023-11-22T16:07:15;8.07;;;5.97;;
7211;SDS011;3647;48.792;9.802;2023-11-22T16:09:44;8.20;;;6.57;;
7211;SDS011;3647;48.792;9.802;2023-11-22T16:12:12;8.40;;;6.40;;
7211;SDS011;3647;48.792;9.802;2023-11-22T16:14:43;8.40;;;6.43;;
7211;SDS011;3647;48.792;9.802;2023-11-22T16:17:11;9.47;;;6.37;;
7211;SDS011;3647;48.792;9.802;2023-11-22T16:19:38;8.37;;;6.30;;
7211;SDS011;3647;48.792;9.802;2023-11-22T16:22:06;8.97;;;5.93;;
7211;SDS011;3647;48.792;9.802;2023-11-22T16:24:33;8.20;;;5.97;;
7211;SDS011;3647;48.792;9.802;2023-11-22T16:27:03;11.37;;;6.87;;
7211;SDS011;3647;48.792;9.802;2023-11-22T16:29:30;7.33;;;5.73;;
7211;SDS011;3647;48.792;9.802;2023-11-22T16:31:58;10.80;;;6.03;;
7211;SDS011;3647;48.792;9.802;2023-11-22T16:34:25;9.60;;;6.63;;
7211;SDS011;3647;48.792;9.802;2023-11-22T16:36:53;6.20;;;5.33;;
7211;SDS011;3647;48.792;9.802;2023-11-22T16:39:20;8.53;;;6.30;;
7211;SDS011;3647;48.792;9.802;2023-11-22T16:41:48;9.00;;;6.20;;
7211;SDS011;3647;48.792;9.802;2023-11-22T16:44:16;7.43;;;5.43;;
7211;SDS011;3647;48.792;9.802;2023-11-22T16:46:44;14.20;;;6.90;;
7211;SDS011;3647;48.792;9.802;2023-11-22T16:49:12;8.10;;;6.30;;
7211;SDS011;3647;48.792;9.802;2023-11-22T16:51:39;7.20;;;6.30;;
7211;SDS011;3647;48.792;9.802;2023-11-22T16:54:09;8.47;;;6.37;;
7211;SDS011;3647;48.792;9.802;2023-11-22T16:56:36;11.17;;;6.80;;
7211;SDS011;3647;48.792;9.802;2023-11-22T16:59:04;8.73;;;6.73;;
7211;SDS011;3647;48.792;9.802;2023-11-22T17:01:34;9.50;;;6.27;;
7211;SDS011;3647;48.792;9.802;2023-11-22T17:04:01;9.97;;;6.97;;
7211;SDS011;3647;48.792;9.802;2023-11-22T17:06:28;6.40;;;5.37;;
7211;SDS011;3647;48.792;9.802;2023-11-22T17:08:56;5.57;;;4.87;;
7211;SDS011;3647;48.792;9.802;2023-11-22T17:11:23;8.07;;;5.97;;
7211;SDS011;3647;48.792;9.802;2023-11-22T17:13:50;6.57;;;5.83;;
7211;SDS011;3647;48.792;9.802;2023-11-22T17:16:18;8.37;;;5.57;;
7211;SDS011;3647;48.792;9.802;2023-11-22T17:18:49;6.97;;;5.73;;
7211;SDS011;3647;48.792;9.802;2023-11-22T17:21:16;7.60;;;6.13;;
7211;SDS011;3647;48.792;9.802;2023-11-22T17:23:43;8.63;;;5.83;;
7211;SDS011;3647;48.792;9.802;2023-11-22T17:26:11;9.03;;;6.80;;
7211;SDS011;3647;48.792;9.802;2023-11-22T17:28:38;8.83;;;5.90;;
7211;SDS011;3647;48.792;9.802;2023-11-22T17:31:05;7.43;;;6.33;;
7211;SDS011;3647;48.792;9.802;2023-11-22T17:33:32;9.70;;;7.63;;
7211;SDS011;3647;48.792;9.802;2023-11-22T17:36:01;9.17;;;6.77;;
7211;SDS011;3647;48.792;9.802;2023-11-22T17:38:28;9.90;;;6.53;;
7211;SDS011;3647;48.792;9.802;2023-11-22T17:40:57;7.70;;;6.20;;
7211;SDS011;3647;48.792;9.802;2023-11-22T17:43:25;10.07;;;7.10;;
7211;SDS011;3647;48.792;9.802;2023-11-22T17:45:52;10.57;;;7.00;;
7211;SDS011;3647;48.792;9.802;2023-11-22T17:48:21;10.73;;;7.00;;
7211;SDS011;3647;48.792;9.802;2023-11-22T17:50:49;9.47;;;7.13;;
7211;SDS011;3647;48.792;9.802;2023-11-22T17:53:18;11.93;;;7.17;;
7211;SDS011;3647;48.792;9.802;2023-11-22T17:55:48;8.20;;;5.67;;
7211;SDS011;3647;48.792;9.802;2023-11-22T17:58:15;9.03;;;6.13;;
7211;SDS011;3647;48.792;9.802;2023-11-22T18:00:42;9.23;;;5.70;;
7211;SDS011;3647;48.792;9.802;2023-11-22T18:03:10;6.37;;;5.63;;
7211;SDS011;3647;48.792;9.802;2023-11-22T18:05:38;7.97;;;6.20;;
7211;SDS011;3647;48.792;9.802;2023-11-22T18:08:06;10.73;;;6.83;;
7211;SDS011;3647;48.792;9.802;2023-11-22T18:10:35;8.30;;;6.70;;
7211;SDS011;3647;48.792;9.802;2023-11-22T18:13:02;10.57;;;7.20;;
7211;SDS011;3647;48.792;9.802;2023-11-22T18:15:32;7.77;;;6.73;;
7211;SDS011;3647;48.792;9.802;2023-11-22T18:18:02;8.57;;;6.73;;
7211;SDS011;3647;48.792;9.802;2023-11-22T18:20:30;7.33;;;6.37;;
7211;SDS011;3647;48.792;9.802;2023-11-22T18:22:59;8.27;;;6.77;;
7211;SDS011;3647;48.792;9.802;2023-11-22T18:25:28;7.97;;;6.67;;
7211;SDS011;3647;48.792;9.802;2023-11-22T18:27:56;8.07;;;7.17;;
7211;SDS011;3647;48.792;9.802;2023-11-22T18:30:25;8.03;;;6.97;;
7211;SDS011;3647;48.792;9.802;2023-11-22T18:32:53;12.40;;;7.90;;
7211;SDS011;3647;48.792;9.802;2023-11-22T18:35:20;8.17;;;6.20;;
7211;SDS011;3647;48.792;9.802;2023-11-22T18:37:47;7.53;;;6.60;;
7211;SDS011;3647;48.792;9.802;2023-11-22T18:40:14;9.80;;;7.63;;
7211;SDS011;3647;48.792;9.802;2023-11-22T18:42:43;12.47;;;8.13;;
7211;SDS011;3647;48.792;9.802;2023-11-22T18:45:12;11.30;;;7.30;;
7211;SDS011;3647;48.792;9.802;2023-11-22T18:47:39;10.10;;;7.53;;
7211;SDS011;3647;48.792;9.802;2023-11-22T18:50:13;8.50;;;6.50;;
7211;SDS011;3647;48.792;9.802;2023-11-22T18:52:40;9.53;;;7.70;;
7211;SDS011;3647;48.792;9.802;2023-11-22T18:55:08;11.57;;;7.90;;
7211;SDS011;3647;48.792;9.802;2023-11-22T18:57:36;8.50;;;6.90;;
7211;SDS011;3647;48.792;9.802;2023-11-22T19:00:06;10.63;;;7.33;;
7211;SDS011;3647;48.792;9.802;2023-11-22T19:02:37;9.90;;;7.50;;
7211;SDS011;3647;48.792;9.802;2023-11-22T19:05:04;9.30;;;6.70;;
7211;SDS011;3647;48.792;9.802;2023-11-22T19:07:32;8.53;;;6.43;;
7211;SDS011;3647;48.792;9.802;2023-11-22T19:09:59;8.80;;;6.80;;
7211;SDS011;3647;48.792;9.802;2023-11-22T19:12:26;10.17;;;7.17;;
7211;SDS011;3647;48.792;9.802;2023-11-22T19:14:53;9.27;;;6.80;;
7211;SDS011;3647;48.792;9.802;2023-11-22T19:17:21;9.37;;;6.37;;
7211;SDS011;3647;48.792;9.802;2023-11-22T19:19:49;10.80;;;7.47;;
7211;SDS011;3647;48.792;9.802;2023-11-22T19:22:16;7.60;;;6.13;;
7211;SDS011;3647;48.792;9.802;2023-11-22T19:24:43;10.17;;;6.70;;
7211;SDS011;3647;48.792;9.802;2023-11-22T19:27:11;10.43;;;7.57;;
7211;SDS011;3647;48.792;9.802;2023-11-22T19:29:39;9.70;;;6.90;;
7211;SDS011;3647;48.792;9.802;2023-11-22T19:32:06;9.37;;;6.90;;
7211;SDS011;3647;48.792;9.802;2023-11-22T19:34:34;10.70;;;7.20;;
7211;SDS011;3647;48.792;9.802;2023-11-22T19:37:02;10.50;;;7.27;;
7211;SDS011;3647;48.792;9.802;2023-11-22T19:39:30;11.77;;;7.23;;
7211;SDS011;3647;48.792;9.802;2023-11-22T19:41:58;8.87;;;6.90;;
7211;SDS011;3647;48.792;9.802;2023-11-22T19:44:24;9.67;;;7.03;;
7211;SDS011;3647;48.792;9.802;2023-11-22T19:46:52;9.97;;;7.27;;
7211;SDS011;3647;48.792;9.802;2023-11-22T19:49:19;10.73;;;6.70;;
7211;SDS011;3647;48.792;9.802;2023-11-22T19:51:47;10.73;;;7.67;;
7211;SDS011;3647;48.792;9.802;2023-11-22T19:54:15;9.87;;;7.20;;
7211;SDS011;3647;48.792;9.802;2023-11-22T19:56:42;12.60;;;7.80;;
7211;SDS011;3647;48.792;9.802;2023-11-22T19:59:10;12.07;;;7.57;;
7211;SDS011;3647;48.792;9.802;2023-11-22T20:01:39;10.17;;;7.30;;
7211;SDS011;3647;48.792;9.802;2023-11-22T20:04:07;12.43;;;7.30;;
7211;SDS011;3647;48.792;9.802;2023-11-22T20:06:35;12.90;;;7.73;;
7211;SDS011;3647;48.792;9.802;2023-11-22T20:09:02;11.33;;;7.40;;
7211;SDS011;3647;48.792;9.802;2023-11-22T20:11:31;10.03;;;6.33;;
7211;SDS011;3647;48.792;9.802;2023-11-22T20:13:59;11.60;;;7.90;;
7211;SDS011;3647;48.792;9.802;2023-11-22T20:16:26;10.57;;;7.97;;
7211;SDS011;3647;48.792;9.802;2023-11-22T20:18:52;10.30;;;7.27;;
7211;SDS011;3647;48.792;9.802;2023-11-22T20:21:19;10.87;;;7.67;;
7211;SDS011;3647;48.792;9.802;2023-11-22T20:23:46;10.60;;;6.97;;
7211;SDS011;3647;48.792;9.802;2023-11-22T20:26:13;10.07;;;7.57;;
7211;SDS011;3647;48.792;9.802;2023-11-22T20:28:41;13.40;;;7.90;;
7211;SDS011;3647;48.792;9.802;2023-11-22T20:31:08;13.30;;;8.23;;
7211;SDS011;3647;48.792;9.802;2023-11-22T20:33:36;9.67;;;7.67;;
7211;SDS011;3647;48.792;9.802;2023-11-22T20:36:03;9.23;;;7.13;;
7211;SDS011;3647;48.792;9.802;2023-11-22T20:38:30;10.80;;;7.43;;
7211;SDS011;3647;48.792;9.802;2023-11-22T20:40:58;11.47;;;7.17;;
7211;SDS011;3647;48.792;9.802;2023-11-22T20:43:25;11.17;;;8.27;;
7211;SDS011;3647;48.792;9.802;2023-11-22T20:45:53;11.47;;;7.83;;
7211;SDS011;3647;48.792;9.802;2023-11-22T20:48:22;11.30;;;8.00;;
7211;SDS011;3647;48.792;9.802;2023-11-22T20:50:49;8.43;;;7.27;;
7211;SDS011;3647;48.792;9.802;2023-11-22T20:53:16;12.03;;;8.63;;
7211;SDS011;3647;48.792;9.802;2023-11-22T20:55:43;13.87;;;8.90;;
7211;SDS011;3647;48.792;9.802;2023-11-22T20:58:10;9.40;;;7.67;;
7211;SDS011;3647;48.792;9.802;2023-11-22T21:00:37;12.00;;;7.53;;
7211;SDS011;3647;48.792;9.802;2023-11-22T21:03:05;10.83;;;7.93;;
7211;SDS011;3647;48.792;9.802;2023-11-22T21:05:33;10.23;;;7.10;;
7211;SDS011;3647;48.792;9.802;2023-11-22T21:08:00;13.67;;;8.27;;
7211;SDS011;3647;48.792;9.802;2023-11-22T21:10:27;11.40;;;8.27;;
7211;SDS011;3647;48.792;9.802;2023-11-22T21:12:55;12.13;;;9.43;;
7211;SDS011;3647;48.792;9.802;2023-11-22T21:15:22;11.40;;;8.17;;
7211;SDS011;3647;48.792;9.802;2023-11-22T21:17:49;15.03;;;10.10;;
7211;SDS011;3647;48.792;9.802;2023-11-22T21:20:18;11.93;;;8.90;;
7211;SDS011;3647;48.792;9.802;2023-11-22T21:22:47;13.23;;;9.23;;
7211;SDS011;3647;48.792;9.802;2023-11-22T21:25:14;12.53;;;8.97;;
7211;SDS011;3647;48.792;9.802;2023-11-22T21:27:40;14.37;;;9.43;;
7211;SDS011;3647;48.792;9.802;2023-11-22T21:30:10;13.40;;;8.67;;
7211;SDS011;3647;48.792;9.802;2023-11-22T21:32:37;14.03;;;8.50;;
7211;SDS011;3647;48.792;9.802;2023-11-22T21:35:06;12.63;;;8.60;;
7211;SDS011;3647;48.792;9.802;2023-11-22T21:37:35;10.53;;;8.03;;
7211;SDS011;3647;48.792;9.802;2023-11-22T21:40:02;15.47;;;9.33;;
7211;SDS011;3647;48.792;9.802;2023-11-22T21:42:35;11.50;;;8.67;;
7211;SDS011;3647;48.792;9.802;2023-11-22T21:45:02;11.20;;;8.47;;
7211;SDS011;3647;48.792;9.802;2023-11-22T21:47:32;11.33;;;8.93;;
7211;SDS011;3647;48.792;9.802;2023-11-22T21:50:01;13.80;;;9.03;;
7211;SDS011;3647;48.792;9.802;2023-11-22T21:52:28;11.73;;;8.33;;
7211;SDS011;3647;48.792;9.802;2023-11-22T21:54:56;13.70;;;9.37;;
7211;SDS011;3647;48.792;9.802;2023-11-22T21:57:23;13.20;;;10.10;;
7211;SDS011;3647;48.792;9.802;2023-11-22T21:59:50;14.13;;;9.43;;
7211;SDS011;3647;48.792;9.802;2023-11-22T22:02:18;14.27;;;9.57;;
7211;SDS011;3647;48.792;9.802;2023-11-22T22:04:45;14.43;;;9.57;;
7211;SDS011;3647;48.792;9.802;2023-11-22T22:07:12;16.97;;;10.53;;
7211;SDS011;3647;48.792;9.802;2023-11-22T22:09:38;14.33;;;9.70;;
7211;SDS011;3647;48.792;9.802;2023-11-22T22:12:07;13.20;;;9.00;;
7211;SDS011;3647;48.792;9.802;2023-11-22T22:14:34;12.37;;;9.03;;
7211;SDS011;3647;48.792;9.802;2023-11-22T22:17:01;15.67;;;9.40;;
7211;SDS011;3647;48.792;9.802;2023-11-22T22:19:28;14.17;;;9.60;;
7211;SDS011;3647;48.792;9.802;2023-11-22T22:21:55;14.93;;;9.13;;
7211;SDS011;3647;48.792;9.802;2023-11-22T22:24:23;15.23;;;9.97;;
7211;SDS011;3647;48.792;9.802;2023-11-22T22:26:50;14.23;;;10.20;;
7211;SDS011;3647;48.792;9.802;2023-11-22T22:29:18;15.53;;;9.97;;
7211;SDS011;3647;48.792;9.802;2023-11-22T22:31:45;13.10;;;8.97;;
7211;SDS011;3647;48.792;9.802;2023-11-22T22:34:12;13.17;;;9.37;;
7211;SDS011;3647;48.792;9.802;2023-11-22T22:36:39;11.60;;;9.83;;
7211;SDS011;3647;48.792;9.802;2023-11-22T22:39:06;11.77;;;9.30;;